createdAt,value
2022-10-17T00:00:06.744Z,81.82
2022-10-17T00:01:06.829Z,81.96
2022-10-17T00:02:06.735Z,81.96
2022-10-17T00:03:06.737Z,82.00
2022-10-17T00:04:06.694Z,82.00
2022-10-17T00:05:06.675Z,82.00
2022-10-17T00:06:06.666Z,82.00
2022-10-17T00:07:06.682Z,82.00
2022-10-17T00:08:06.846Z,81.90
2022-10-17T00:09:06.626Z,81.86
2022-10-17T00:10:06.675Z,81.76
2022-10-17T00:11:06.668Z,81.76
2022-10-17T00:12:06.659Z,81.76
2022-10-17T00:13:06.657Z,81.76
2022-10-17T00:14:06.680Z,81.76
2022-10-17T00:15:06.595Z,81.76
2022-10-17T00:16:06.549Z,81.76
2022-10-17T00:17:06.547Z,81.76
2022-10-17T00:18:06.569Z,81.86
2022-10-17T00:19:06.760Z,81.90
2022-10-17T00:20:06.527Z,82.00
2022-10-17T00:21:06.498Z,82.00
2022-10-17T00:22:06.491Z,82.00
2022-10-17T00:23:06.470Z,82.00
2022-10-17T00:24:06.469Z,82.00
2022-10-17T00:25:06.486Z,82.00
2022-10-17T00:26:06.479Z,82.00
2022-10-17T00:27:06.437Z,82.00
2022-10-17T00:28:06.420Z,82.00
2022-10-17T00:29:06.612Z,82.00
2022-10-17T00:30:06.401Z,82.00
2022-10-17T00:31:06.410Z,82.04
2022-10-17T00:32:06.768Z,82.14
2022-10-17T00:33:06.370Z,82.14
2022-10-17T00:34:06.353Z,82.24
2022-10-17T00:35:06.344Z,82.28
2022-10-17T00:36:06.354Z,82.38
2022-10-17T00:37:06.538Z,82.38
2022-10-17T00:38:06.312Z,82.38
2022-10-17T00:39:06.301Z,82.38
2022-10-17T00:40:06.289Z,82.38
2022-10-17T00:41:06.276Z,82.38
2022-10-17T00:42:06.269Z,82.38
2022-10-17T00:43:06.270Z,82.38
2022-10-17T00:44:06.245Z,82.18
2022-10-17T00:45:06.222Z,82.28
2022-10-17T00:46:06.233Z,82.28
2022-10-17T00:47:06.202Z,82.14
2022-10-17T00:48:06.223Z,82.14
2022-10-17T00:49:06.184Z,82.14
2022-10-17T00:50:06.182Z,82.28
2022-10-17T00:51:06.163Z,82.28
2022-10-17T00:52:06.154Z,82.28
2022-10-17T00:53:06.134Z,82.28
2022-10-17T00:54:06.160Z,82.28
2022-10-17T00:55:06.134Z,82.28
2022-10-17T00:56:06.104Z,82.28
2022-10-17T00:57:06.096Z,82.28
2022-10-17T00:58:06.097Z,82.28
2022-10-17T01:00:06.089Z,82.28
2022-10-17T01:01:06.063Z,82.14
2022-10-17T01:02:06.038Z,82.04
2022-10-17T01:03:06.028Z,82.04
2022-10-17T01:04:06.009Z,82.04
2022-10-17T01:05:06.026Z,82.00
2022-10-17T01:06:05.987Z,81.90
2022-10-17T01:07:05.987Z,81.79
2022-10-17T01:08:05.977Z,81.90
2022-10-17T01:09:05.957Z,81.79
2022-10-17T01:10:05.949Z,81.76
2022-10-17T01:11:05.973Z,81.66
2022-10-17T01:12:05.947Z,81.66
2022-10-17T01:13:05.917Z,81.66
2022-10-17T01:14:05.909Z,81.66
2022-10-17T01:15:05.904Z,81.52
2022-10-17T01:16:05.883Z,81.52
2022-10-17T01:17:05.902Z,81.41
2022-10-17T01:18:05.859Z,81.41
2022-10-17T01:19:05.863Z,81.41
2022-10-17T01:20:05.830Z,81.41
2022-10-17T01:21:05.833Z,81.41
2022-10-17T01:22:05.864Z,81.41
2022-10-17T01:23:05.810Z,81.41
2022-10-17T01:24:05.860Z,81.41
2022-10-17T01:25:05.796Z,81.41
2022-10-17T01:26:05.770Z,81.41
2022-10-17T01:27:05.772Z,81.41
2022-10-17T01:28:05.777Z,81.41
2022-10-17T01:29:05.743Z,81.41
2022-10-17T01:30:05.733Z,81.52
2022-10-17T01:31:05.722Z,81.41
2022-10-17T01:32:05.737Z,81.52
2022-10-17T01:33:05.692Z,81.56
2022-10-17T01:34:05.747Z,81.56
2022-10-17T01:35:05.672Z,81.56
2022-10-17T01:36:06.061Z,81.56
2022-10-17T01:37:05.662Z,81.66
2022-10-17T01:38:05.657Z,81.56
2022-10-17T01:39:05.663Z,81.66
2022-10-17T01:40:05.641Z,81.66
2022-10-17T01:41:05.607Z,81.66
2022-10-17T01:42:05.594Z,81.66
2022-10-17T01:43:05.641Z,81.66
2022-10-17T01:44:05.574Z,81.70
2022-10-17T01:45:05.564Z,81.70
2022-10-17T01:46:05.565Z,81.79
2022-10-17T01:47:05.542Z,81.79
2022-10-17T01:48:05.556Z,81.79
2022-10-17T01:49:05.515Z,81.79
2022-10-17T01:50:05.525Z,81.90
2022-10-17T01:51:05.515Z,81.79
2022-10-17T01:52:05.496Z,81.79
2022-10-17T01:53:05.486Z,81.79
2022-10-17T01:54:05.478Z,81.90
2022-10-17T01:55:05.446Z,81.84
2022-10-17T01:56:05.450Z,81.93
2022-10-17T01:57:05.495Z,81.93
2022-10-17T01:58:06.151Z,81.93
2022-10-17T01:59:05.419Z,81.93
2022-10-17T02:00:05.400Z,81.93
2022-10-17T02:01:05.525Z,81.93
2022-10-17T02:02:05.367Z,81.93
2022-10-17T02:03:05.391Z,81.93
2022-10-17T02:04:05.363Z,81.93
2022-10-17T02:05:05.355Z,81.93
2022-10-17T02:06:05.328Z,81.93
2022-10-17T02:07:05.329Z,82.04
2022-10-17T02:08:05.352Z,82.04
2022-10-17T02:09:05.305Z,82.07
2022-10-17T02:10:05.300Z,82.07
2022-10-17T02:11:05.279Z,82.04
2022-10-17T02:12:05.267Z,82.04
2022-10-17T02:13:05.250Z,82.07
2022-10-17T02:14:05.329Z,82.28
2022-10-17T02:15:05.241Z,82.32
2022-10-17T02:16:05.220Z,82.32
2022-10-17T02:17:05.210Z,82.32
2022-10-17T02:18:05.191Z,82.32
2022-10-17T02:19:05.202Z,82.18
2022-10-17T02:20:05.201Z,82.18
2022-10-17T02:21:05.170Z,82.18
2022-10-17T02:22:05.152Z,82.18
2022-10-17T02:23:05.232Z,82.18
2022-10-17T02:24:05.134Z,82.18
2022-10-17T02:25:05.132Z,82.18
2022-10-17T02:26:05.123Z,82.18
2022-10-17T02:27:05.101Z,82.18
2022-10-17T02:28:05.093Z,82.18
2022-10-17T02:29:05.141Z,82.18
2022-10-17T02:30:05.074Z,82.18
2022-10-17T02:31:05.084Z,82.28
2022-10-17T02:32:05.049Z,82.32
2022-10-17T02:33:05.032Z,82.32
2022-10-17T02:34:05.027Z,82.32
2022-10-17T02:35:05.013Z,82.32
2022-10-17T02:36:05.013Z,82.32
2022-10-17T02:37:05.016Z,82.32
2022-10-17T02:38:05.007Z,82.32
2022-10-17T02:39:04.964Z,82.42
2022-10-17T02:40:04.954Z,82.42
2022-10-17T02:41:04.943Z,82.42
2022-10-17T02:42:04.938Z,82.46
2022-10-17T02:43:04.955Z,82.46
2022-10-17T02:44:04.906Z,82.56
2022-10-17T02:45:04.902Z,82.56
2022-10-17T02:46:04.885Z,82.56
2022-10-17T02:47:04.880Z,82.56
2022-10-17T02:48:04.887Z,82.56
2022-10-17T02:49:04.877Z,82.56
2022-10-17T02:50:04.836Z,82.42
2022-10-17T02:51:04.835Z,82.46
2022-10-17T02:52:04.807Z,82.46
2022-10-17T02:53:04.818Z,82.46
2022-10-17T02:54:04.798Z,82.46
2022-10-17T02:55:04.818Z,82.46
2022-10-17T02:56:04.768Z,82.46
2022-10-17T02:57:04.760Z,82.46
2022-10-17T02:58:04.759Z,82.46
2022-10-17T02:59:04.742Z,82.56
2022-10-17T03:00:04.723Z,82.56
2022-10-17T03:01:04.829Z,82.56
2022-10-17T03:02:04.710Z,82.56
2022-10-17T03:03:04.713Z,82.56
2022-10-17T03:04:04.679Z,82.46
2022-10-17T03:05:04.670Z,82.56
2022-10-17T03:06:04.661Z,82.56
2022-10-17T03:07:04.661Z,82.56
2022-10-17T03:08:04.630Z,82.46
2022-10-17T03:09:04.635Z,82.46
2022-10-17T03:10:04.622Z,82.46
2022-10-17T03:11:04.604Z,82.42
2022-10-17T03:12:04.618Z,82.42
2022-10-17T03:13:04.580Z,82.46
2022-10-17T03:14:04.611Z,82.32
2022-10-17T03:15:04.551Z,82.42
2022-10-17T03:16:04.552Z,82.42
2022-10-17T03:17:04.532Z,82.42
2022-10-17T03:18:04.542Z,82.42
2022-10-17T03:19:04.513Z,82.42
2022-10-17T03:20:04.523Z,82.42
2022-10-17T03:21:04.495Z,82.46
2022-10-17T03:22:04.486Z,82.46
2022-10-17T03:23:04.453Z,82.46
2022-10-17T03:24:04.492Z,82.46
2022-10-17T03:25:04.437Z,82.46
2022-10-17T03:26:04.423Z,82.42
2022-10-17T03:27:04.415Z,82.42
2022-10-17T03:28:04.404Z,82.46
2022-10-17T03:29:04.467Z,82.46
2022-10-17T03:30:04.556Z,82.42
2022-10-17T03:31:04.374Z,82.32
2022-10-17T03:32:04.365Z,82.32
2022-10-17T03:33:04.345Z,82.42
2022-10-17T03:34:04.348Z,82.42
2022-10-17T03:35:04.370Z,82.42
2022-10-17T03:36:04.316Z,82.42
2022-10-17T03:37:04.306Z,82.42
2022-10-17T03:38:04.295Z,82.42
2022-10-17T03:39:04.329Z,82.42
2022-10-17T03:40:04.270Z,82.46
2022-10-17T03:41:04.292Z,82.42
2022-10-17T03:42:04.252Z,82.46
2022-10-17T03:43:04.236Z,82.46
2022-10-17T03:44:04.229Z,82.46
2022-10-17T03:45:04.210Z,82.46
2022-10-17T03:46:04.271Z,82.46
2022-10-17T03:47:04.753Z,82.46
2022-10-17T03:48:04.174Z,82.46
2022-10-17T03:49:04.216Z,82.46
2022-10-17T03:50:04.149Z,82.46
2022-10-17T03:51:04.133Z,82.46
2022-10-17T03:52:04.134Z,82.46
2022-10-17T03:53:04.160Z,82.46
2022-10-17T03:54:04.112Z,82.46
2022-10-17T03:55:04.108Z,82.46
2022-10-17T03:56:04.079Z,82.46
2022-10-17T03:57:04.070Z,82.46
2022-10-17T03:58:04.088Z,82.46
2022-10-17T03:59:04.061Z,82.46
2022-10-17T04:00:04.264Z,82.46
2022-10-17T04:01:04.046Z,82.46
2022-10-17T04:02:04.020Z,82.46
2022-10-17T04:03:04.050Z,82.46
2022-10-17T04:04:04.041Z,82.46
2022-10-17T04:05:03.973Z,82.46
2022-10-17T04:06:03.968Z,82.46
2022-10-17T04:07:03.963Z,82.46
2022-10-17T04:08:04.885Z,82.46
2022-10-17T04:09:03.950Z,82.35
2022-10-17T04:10:04.074Z,82.46
2022-10-17T04:11:03.941Z,82.46
2022-10-17T04:12:03.937Z,82.46
2022-10-17T04:13:03.945Z,82.46
2022-10-17T04:14:03.892Z,82.46
2022-10-17T04:15:03.906Z,82.46
2022-10-17T04:16:03.919Z,82.46
2022-10-17T04:17:03.843Z,82.46
2022-10-17T04:19:03.823Z,82.46
2022-10-17T04:20:03.810Z,82.46
2022-10-17T04:21:03.814Z,82.46
2022-10-17T04:22:03.926Z,82.46
2022-10-17T04:23:03.774Z,82.46
2022-10-17T04:24:03.765Z,82.46
2022-10-17T04:25:03.831Z,82.46
2022-10-17T04:26:03.759Z,82.46
2022-10-17T04:27:03.735Z,82.46
2022-10-17T04:28:03.733Z,82.46
2022-10-17T04:29:03.735Z,82.46
2022-10-17T04:30:03.691Z,82.46
2022-10-17T04:31:03.689Z,82.46
2022-10-17T04:32:03.711Z,82.46
2022-10-17T04:33:03.698Z,82.46
2022-10-17T04:34:03.678Z,82.46
2022-10-17T04:35:03.638Z,82.46
2022-10-17T04:36:03.656Z,82.46
2022-10-17T04:37:03.625Z,82.46
2022-10-17T04:38:03.599Z,82.46
2022-10-17T04:39:03.755Z,82.56
2022-10-17T04:40:03.595Z,82.56
2022-10-17T04:41:03.579Z,82.46
2022-10-17T04:42:03.559Z,82.56
2022-10-17T04:43:03.550Z,82.60
2022-10-17T04:44:03.540Z,82.56
2022-10-17T04:45:03.587Z,82.56
2022-10-17T04:46:03.525Z,82.56
2022-10-17T04:47:03.508Z,82.56
2022-10-17T04:48:03.493Z,82.56
2022-10-17T04:49:03.490Z,82.56
2022-10-17T04:50:03.463Z,82.56
2022-10-17T04:51:03.491Z,82.60
2022-10-17T04:52:03.440Z,82.60
2022-10-17T04:53:03.445Z,82.60
2022-10-17T04:54:03.432Z,82.60
2022-10-17T04:55:03.414Z,82.60
2022-10-17T04:56:03.448Z,82.60
2022-10-17T04:57:03.387Z,82.70
2022-10-17T04:58:03.418Z,82.70
2022-10-17T04:59:03.368Z,82.70
2022-10-17T05:00:03.444Z,82.70
2022-10-17T05:01:03.432Z,82.70
2022-10-17T05:02:03.361Z,82.70
2022-10-17T05:03:03.339Z,82.70
2022-10-17T05:04:03.323Z,82.66
2022-10-17T05:05:03.292Z,82.60
2022-10-17T05:06:03.297Z,82.56
2022-10-17T05:07:03.263Z,82.60
2022-10-17T05:08:03.312Z,82.60
2022-10-17T05:09:03.248Z,82.70
2022-10-17T05:10:03.233Z,82.70
2022-10-17T05:11:03.257Z,82.70
2022-10-17T05:12:04.415Z,82.70
2022-10-17T05:13:03.265Z,82.70
2022-10-17T05:14:03.195Z,82.70
2022-10-17T05:15:03.186Z,82.70
2022-10-17T05:16:03.196Z,82.70
2022-10-17T05:17:03.155Z,82.70
2022-10-17T05:18:03.155Z,82.70
2022-10-17T05:19:03.179Z,82.70
2022-10-17T05:20:03.125Z,82.70
2022-10-17T05:21:03.115Z,82.70
2022-10-17T05:22:03.125Z,82.70
2022-10-17T05:23:03.087Z,82.70
2022-10-17T05:24:03.104Z,82.56
2022-10-17T05:25:03.098Z,82.56
2022-10-17T05:26:03.079Z,82.46
2022-10-17T05:27:03.037Z,82.46
2022-10-17T05:28:03.062Z,82.46
2022-10-17T05:29:03.156Z,82.32
2022-10-17T05:30:03.038Z,82.32
2022-10-17T05:31:02.997Z,82.18
2022-10-17T05:32:03.049Z,82.18
2022-10-17T05:33:02.986Z,82.18
2022-10-17T05:34:02.971Z,82.07
2022-10-17T05:35:02.959Z,82.07
2022-10-17T05:36:03.036Z,82.07
2022-10-17T05:37:02.929Z,81.98
2022-10-17T05:38:02.924Z,81.93
2022-10-17T05:39:02.934Z,81.93
2022-10-17T05:40:02.919Z,81.93
2022-10-17T05:41:02.906Z,81.93
2022-10-17T05:42:02.908Z,81.93
2022-10-17T05:43:02.869Z,81.84
2022-10-17T05:44:05.387Z,81.79
2022-10-17T05:45:02.895Z,81.79
2022-10-17T05:46:02.820Z,81.84
2022-10-17T05:47:02.837Z,81.84
2022-10-17T05:48:02.847Z,81.84
2022-10-17T05:49:14.755Z,81.84
2022-10-17T05:50:03.792Z,81.84
2022-10-17T05:51:02.773Z,81.84
2022-10-17T05:52:02.781Z,81.84
2022-10-17T05:53:02.838Z,81.87
2022-10-17T05:54:02.763Z,81.93
2022-10-17T05:55:02.771Z,81.98
2022-10-17T05:56:02.787Z,81.93
2022-10-17T05:57:03.673Z,81.84
2022-10-17T05:58:02.766Z,81.84
2022-10-17T05:59:02.826Z,81.93
2022-10-17T06:00:02.718Z,81.93
2022-10-17T06:01:02.826Z,81.84
2022-10-17T06:02:02.859Z,81.93
2022-10-17T06:03:02.671Z,81.98
2022-10-17T06:04:03.581Z,81.98
2022-10-17T06:05:02.908Z,81.87
2022-10-17T06:06:02.681Z,81.98
2022-10-17T06:07:02.817Z,81.98
2022-10-17T06:08:02.655Z,81.87
2022-10-17T06:09:02.579Z,81.98
2022-10-17T06:10:02.664Z,81.87
2022-10-17T06:11:06.067Z,81.93
2022-10-17T06:12:03.564Z,81.98
2022-10-17T06:13:02.576Z,81.98
2022-10-17T06:14:02.535Z,81.98
2022-10-17T06:15:02.519Z,81.98
2022-10-17T06:16:02.505Z,81.98
2022-10-17T06:17:02.517Z,81.98
2022-10-17T06:18:02.485Z,81.98
2022-10-17T06:19:02.475Z,81.98
2022-10-17T06:20:02.446Z,81.98
2022-10-17T06:21:02.470Z,81.98
2022-10-17T06:22:02.429Z,81.98
2022-10-17T06:23:02.451Z,81.98
2022-10-17T06:24:02.418Z,81.87
2022-10-17T06:25:02.387Z,81.84
2022-10-17T06:26:02.398Z,81.84
2022-10-17T06:27:02.379Z,81.84
2022-10-17T06:28:02.409Z,81.84
2022-10-17T06:29:02.447Z,81.84
2022-10-17T06:30:02.337Z,81.84
2022-10-17T06:31:02.388Z,81.84
2022-10-17T06:32:02.318Z,81.84
2022-10-17T06:33:02.346Z,81.84
2022-10-17T06:34:02.348Z,81.84
2022-10-17T06:35:02.314Z,81.84
2022-10-17T06:36:02.277Z,81.84
2022-10-17T06:37:02.281Z,81.84
2022-10-17T06:38:02.346Z,81.73
2022-10-17T06:39:02.260Z,81.84
2022-10-17T06:40:02.254Z,81.73
2022-10-17T06:41:02.248Z,81.73
2022-10-17T06:42:02.210Z,81.73
2022-10-17T06:43:02.191Z,81.73
2022-10-17T06:44:02.195Z,81.84
2022-10-17T06:45:02.210Z,81.84
2022-10-17T06:46:02.265Z,81.84
2022-10-17T06:47:02.175Z,81.73
2022-10-17T06:48:02.149Z,81.73
2022-10-17T06:49:02.137Z,81.63
2022-10-17T06:50:02.135Z,81.59
2022-10-17T06:51:02.146Z,81.59
2022-10-17T06:52:02.105Z,81.49
2022-10-17T06:53:02.093Z,81.49
2022-10-17T06:54:02.066Z,81.49
2022-10-17T06:56:02.075Z,81.49
2022-10-17T06:57:02.044Z,81.49
2022-10-17T06:58:02.033Z,81.49
2022-10-17T06:59:02.033Z,81.49
2022-10-17T07:00:02.061Z,81.49
2022-10-17T07:01:02.127Z,81.49
2022-10-17T07:02:02.041Z,81.49
2022-10-17T07:03:01.975Z,81.49
2022-10-17T07:04:01.982Z,81.49
2022-10-17T07:05:01.966Z,81.49
2022-10-17T07:06:01.935Z,81.49
2022-10-17T07:07:01.957Z,81.49
2022-10-17T07:08:01.959Z,81.49
2022-10-17T07:09:01.923Z,81.39
2022-10-17T07:10:01.908Z,81.35
2022-10-17T07:11:01.890Z,81.35
2022-10-17T07:12:01.873Z,81.35
2022-10-17T07:13:01.862Z,81.35
2022-10-17T07:14:01.886Z,81.25
2022-10-17T07:15:01.856Z,81.25
2022-10-17T07:16:01.891Z,81.21
2022-10-17T07:17:01.839Z,81.21
2022-10-17T07:18:01.808Z,81.11
2022-10-17T07:19:01.805Z,81.11
2022-10-17T07:20:01.810Z,81.11
2022-10-17T07:21:01.780Z,80.97
2022-10-17T07:22:01.759Z,80.97
2022-10-17T07:23:01.748Z,81.07
2022-10-17T07:24:01.749Z,81.07
2022-10-17T07:25:01.721Z,81.07
2022-10-17T07:26:01.797Z,81.07
2022-10-17T07:27:01.698Z,81.07
2022-10-17T07:28:01.702Z,81.07
2022-10-17T07:29:01.734Z,81.07
2022-10-17T07:30:01.700Z,81.07
2022-10-17T07:31:01.651Z,81.07
2022-10-17T07:32:01.666Z,81.07
2022-10-17T07:33:01.632Z,80.97
2022-10-17T07:34:01.655Z,80.93
2022-10-17T07:35:01.629Z,80.93
2022-10-17T07:36:01.591Z,80.93
2022-10-17T07:37:01.596Z,80.83
2022-10-17T07:38:01.602Z,80.90
2022-10-17T07:39:01.685Z,80.90
2022-10-17T07:40:01.543Z,80.79
2022-10-17T07:41:01.535Z,80.79
2022-10-17T07:42:01.527Z,80.69
2022-10-17T07:43:01.501Z,80.76
2022-10-17T07:44:01.540Z,80.65
2022-10-17T07:45:01.500Z,80.65
2022-10-17T07:46:01.477Z,80.65
2022-10-17T07:47:01.489Z,80.76
2022-10-17T07:48:01.445Z,80.72
2022-10-17T07:49:01.490Z,80.82
2022-10-17T07:50:01.445Z,80.92
2022-10-17T07:51:01.489Z,80.82
2022-10-17T07:52:01.414Z,80.78
2022-10-17T07:53:01.426Z,80.78
2022-10-17T07:54:01.380Z,80.78
2022-10-17T07:55:01.378Z,80.78
2022-10-17T07:56:01.398Z,80.84
2022-10-17T07:57:01.367Z,80.94
2022-10-17T07:58:01.356Z,81.05
2022-10-17T07:59:03.842Z,81.05
2022-10-17T08:00:02.348Z,81.15
2022-10-17T08:02:01.389Z,81.71
2022-10-17T08:03:01.397Z,81.82
2022-10-17T08:04:01.297Z,82.32
2022-10-17T08:05:01.257Z,82.53
2022-10-17T08:06:01.259Z,82.79
2022-10-17T08:07:18.299Z,83.40
2022-10-17T08:08:02.231Z,83.50
2022-10-17T08:09:01.212Z,83.80
2022-10-17T08:10:01.303Z,84.27
2022-10-17T08:11:01.230Z,84.57
2022-10-17T08:12:01.185Z,85.38
2022-10-17T08:13:01.390Z,85.58
2022-10-17T08:14:01.159Z,86.08
2022-10-17T08:15:01.147Z,86.25
2022-10-17T08:16:01.169Z,86.35
2022-10-17T08:17:01.133Z,86.65
2022-10-17T08:18:01.128Z,86.71
2022-10-17T08:19:01.230Z,87.01
2022-10-17T08:20:01.111Z,87.62
2022-10-17T08:21:01.102Z,87.62
2022-10-17T08:22:01.061Z,87.92
2022-10-17T08:23:01.065Z,88.32
2022-10-17T08:24:01.053Z,88.32
2022-10-17T08:25:01.050Z,87.98
2022-10-17T08:26:01.035Z,88.48
2022-10-17T08:27:01.014Z,88.48
2022-10-17T08:28:01.073Z,89.59
2022-10-17T08:29:01.062Z,89.79
2022-10-17T08:30:01.001Z,89.84
2022-10-17T08:31:00.995Z,90.24
2022-10-17T08:32:02.357Z,91.15
2022-10-17T08:33:00.983Z,90.85
2022-10-17T08:34:00.936Z,90.50
2022-10-17T08:35:00.942Z,90.30
2022-10-17T08:36:01.639Z,90.41
2022-10-17T08:37:00.951Z,90.61
2022-10-17T08:38:00.876Z,90.81
2022-10-17T08:39:00.905Z,90.81
2022-10-17T08:40:00.871Z,90.81
2022-10-17T08:41:00.837Z,90.81
2022-10-17T08:42:00.824Z,91.01
2022-10-17T08:43:00.862Z,90.70
2022-10-17T08:44:00.807Z,91.71
2022-10-17T08:45:00.823Z,90.81
2022-10-17T08:46:00.777Z,90.77
2022-10-17T08:47:00.796Z,90.97
2022-10-17T08:48:00.802Z,90.91
2022-10-17T08:49:00.748Z,90.56
2022-10-17T08:50:00.748Z,91.06
2022-10-17T08:51:00.758Z,91.47
2022-10-17T08:52:00.736Z,91.27
2022-10-17T08:53:00.744Z,91.57
2022-10-17T08:54:00.723Z,91.67
2022-10-17T08:55:00.702Z,91.63
2022-10-17T08:56:00.690Z,91.83
2022-10-17T08:57:00.674Z,92.13
2022-10-17T08:58:00.682Z,91.93
2022-10-17T08:59:00.656Z,92.63
2022-10-17T09:00:00.671Z,92.13
2022-10-17T09:01:00.619Z,92.74
2022-10-17T09:02:00.612Z,92.74
2022-10-17T09:03:00.632Z,92.94
2022-10-17T09:04:00.604Z,93.04
2022-10-17T09:05:00.580Z,92.74
2022-10-17T09:06:00.584Z,92.54
2022-10-17T09:07:00.564Z,92.83
2022-10-17T09:08:00.531Z,92.69
2022-10-17T09:09:00.530Z,93.04
2022-10-17T09:10:00.502Z,93.80
2022-10-17T09:11:00.495Z,93.70
2022-10-17T09:12:00.553Z,93.19
2022-10-17T09:13:05.371Z,93.30
2022-10-17T09:14:01.462Z,93.86
2022-10-17T09:15:00.460Z,94.16
2022-10-17T09:16:00.434Z,94.20
2022-10-17T09:17:00.449Z,93.86
2022-10-17T09:18:00.517Z,94.26
2022-10-17T09:19:00.405Z,93.96
2022-10-17T09:20:00.399Z,94.26
2022-10-17T09:21:00.386Z,94.16
2022-10-17T09:22:00.374Z,94.06
2022-10-17T09:23:00.444Z,93.96
2022-10-17T09:24:09.206Z,94.21
2022-10-17T09:25:01.395Z,94.06
2022-10-17T09:26:00.324Z,93.91
2022-10-17T09:27:00.317Z,94.21
2022-10-17T09:28:00.316Z,94.12
2022-10-17T09:29:00.339Z,93.91
2022-10-17T09:30:00.299Z,94.21
2022-10-17T09:31:00.269Z,94.07
2022-10-17T09:32:00.250Z,94.07
2022-10-17T09:33:00.282Z,94.07
2022-10-17T09:34:00.298Z,93.57
2022-10-17T09:35:00.229Z,94.02
2022-10-17T09:36:00.230Z,94.13
2022-10-17T09:37:00.198Z,93.73
2022-10-17T09:38:00.178Z,94.02
2022-10-17T09:39:00.191Z,94.23
2022-10-17T09:40:00.192Z,94.02
2022-10-17T09:41:00.177Z,94.13
2022-10-17T09:42:00.226Z,93.82
2022-10-17T09:43:00.134Z,93.93
2022-10-17T09:44:00.119Z,93.88
2022-10-17T09:45:00.118Z,94.08
2022-10-17T09:46:00.093Z,93.58
2022-10-17T09:47:00.109Z,93.48
2022-10-17T09:48:01.695Z,93.68
2022-10-17T09:49:00.095Z,93.78
2022-10-17T09:50:00.101Z,93.68
2022-10-17T09:51:14.910Z,93.88
2022-10-17T09:52:01.055Z,93.63
2022-10-17T09:53:00.012Z,93.63
2022-10-17T09:54:00.043Z,93.43
2022-10-17T09:54:59.995Z,93.43
2022-10-17T09:56:00.060Z,93.43
2022-10-17T09:56:59.974Z,93.49
2022-10-17T09:57:59.965Z,93.69
2022-10-17T09:58:59.954Z,93.39
2022-10-17T10:00:00.012Z,93.63
2022-10-17T10:00:59.940Z,93.33
2022-10-17T10:01:59.915Z,93.79
2022-10-17T10:02:59.908Z,93.89
2022-10-17T10:03:59.926Z,92.89
2022-10-17T10:05:05.173Z,93.55
2022-10-17T10:06:00.887Z,93.29
2022-10-17T10:06:59.881Z,93.19
2022-10-17T10:07:59.851Z,93.59
2022-10-17T10:08:59.867Z,93.39
2022-10-17T10:09:59.839Z,93.35
2022-10-17T10:10:59.819Z,92.65
2022-10-17T10:11:59.806Z,93.24
2022-10-17T10:12:59.789Z,93.00
2022-10-17T10:13:59.792Z,92.70
2022-10-17T10:14:59.801Z,92.60
2022-10-17T10:15:59.760Z,91.89
2022-10-17T10:16:59.750Z,91.80
2022-10-17T10:17:59.738Z,91.19
2022-10-17T10:18:59.730Z,91.30
2022-10-17T10:19:59.720Z,91.50
2022-10-17T10:20:59.733Z,92.40
2022-10-17T10:21:59.691Z,92.10
2022-10-17T10:22:59.691Z,92.10
2022-10-17T10:23:59.684Z,92.25
2022-10-17T10:24:59.672Z,91.65
2022-10-17T10:25:59.684Z,91.15
2022-10-17T10:26:59.655Z,91.45
2022-10-17T10:28:01.369Z,90.85
2022-10-17T10:28:59.766Z,90.45
2022-10-17T10:29:59.608Z,90.61
2022-10-17T10:30:59.595Z,91.11
2022-10-17T10:31:59.626Z,90.55
2022-10-17T10:32:59.575Z,92.01
2022-10-17T10:33:59.579Z,90.70
2022-10-17T10:34:59.573Z,90.45
2022-10-17T10:35:59.544Z,90.55
2022-10-17T10:36:59.544Z,90.55
2022-10-17T10:37:59.544Z,90.61
2022-10-17T10:39:02.386Z,90.31
2022-10-17T10:40:00.494Z,89.81
2022-10-17T10:40:59.486Z,90.50
2022-10-17T10:41:59.475Z,90.81
2022-10-17T10:43:02.621Z,89.90
2022-10-17T10:44:00.516Z,89.70
2022-10-17T10:44:59.463Z,89.50
2022-10-17T10:45:59.430Z,90.20
2022-10-17T10:46:59.438Z,89.40
2022-10-17T10:47:59.409Z,89.40
2022-10-17T10:48:59.400Z,89.70
2022-10-17T10:49:59.407Z,90.31
2022-10-17T10:50:59.370Z,90.50
2022-10-17T10:51:59.360Z,90.31
2022-10-17T10:52:59.361Z,90.81
2022-10-17T10:53:59.348Z,90.55
2022-10-17T10:54:59.324Z,90.61
2022-10-17T10:55:59.370Z,90.70
2022-10-17T10:56:59.302Z,90.61
2022-10-17T10:57:59.313Z,90.31
2022-10-17T10:58:59.282Z,90.11
2022-10-17T10:59:59.272Z,90.31
2022-10-17T11:00:59.316Z,90.11
2022-10-17T11:01:59.271Z,90.20
2022-10-17T11:03:01.242Z,90.61
2022-10-17T11:03:59.222Z,90.11
2022-10-17T11:04:59.222Z,90.11
2022-10-17T11:05:59.192Z,90.91
2022-10-17T11:06:59.212Z,90.50
2022-10-17T11:07:59.183Z,90.81
2022-10-17T11:08:59.174Z,90.91
2022-10-17T11:09:59.152Z,90.70
2022-10-17T11:10:59.139Z,90.26
2022-10-17T11:11:59.134Z,89.66
2022-10-17T11:12:59.137Z,90.06
2022-10-17T11:13:59.135Z,89.46
2022-10-17T11:14:59.096Z,89.72
2022-10-17T11:15:59.085Z,89.52
2022-10-17T11:16:59.077Z,89.72
2022-10-17T11:17:59.065Z,89.52
2022-10-17T11:18:59.100Z,90.02
2022-10-17T11:19:59.075Z,89.52
2022-10-17T11:20:59.038Z,89.22
2022-10-17T11:21:59.017Z,88.82
2022-10-17T11:22:59.020Z,89.12
2022-10-17T11:23:59.017Z,88.92
2022-10-17T11:24:59.010Z,88.32
2022-10-17T11:25:58.967Z,90.02
2022-10-17T11:26:58.960Z,89.12
2022-10-17T11:28:04.429Z,88.28
2022-10-17T11:29:00.007Z,88.68
2022-10-17T11:29:59.001Z,87.43
2022-10-17T11:30:58.926Z,87.73
2022-10-17T11:31:58.910Z,87.73
2022-10-17T11:32:58.912Z,86.93
2022-10-17T11:33:58.880Z,87.03
2022-10-17T11:34:58.880Z,87.83
2022-10-17T11:35:59.000Z,86.73
2022-10-17T11:36:58.861Z,87.19
2022-10-17T11:37:58.861Z,86.29
2022-10-17T11:38:58.874Z,85.83
2022-10-17T11:39:58.888Z,86.13
2022-10-17T11:40:58.842Z,86.63
2022-10-17T11:42:00.894Z,86.93
2022-10-17T11:42:58.814Z,86.83
2022-10-17T11:43:58.767Z,86.53
2022-10-17T11:44:58.754Z,87.34
2022-10-17T11:45:58.735Z,86.73
2022-10-17T11:46:58.746Z,87.07
2022-10-17T11:47:58.747Z,87.83
2022-10-17T11:48:58.721Z,87.43
2022-10-17T11:49:58.750Z,87.23
2022-10-17T11:52:01.718Z,87.43
2022-10-17T11:52:58.939Z,86.63
2022-10-17T11:53:58.663Z,86.23
2022-10-17T11:54:58.639Z,86.63
2022-10-17T11:55:58.619Z,86.33
2022-10-17T11:56:58.608Z,87.43
2022-10-17T11:57:58.606Z,87.53
2022-10-17T11:58:58.630Z,87.63
2022-10-17T11:59:58.598Z,87.73
2022-10-17T12:00:58.578Z,87.57
2022-10-17T12:01:58.557Z,87.68
2022-10-17T12:02:58.538Z,88.07
2022-10-17T12:03:58.601Z,87.83
2022-10-17T12:04:58.508Z,87.43
2022-10-17T12:05:58.547Z,87.73
2022-10-17T12:06:58.519Z,87.69
2022-10-17T12:07:58.480Z,88.09
2022-10-17T12:08:58.479Z,87.03
2022-10-17T12:10:00.190Z,87.34
2022-10-17T12:10:58.487Z,86.63
2022-10-17T12:11:58.517Z,86.83
2022-10-17T12:12:58.423Z,87.03
2022-10-17T12:14:00.044Z,87.34
2022-10-17T12:14:58.403Z,87.69
2022-10-17T12:15:58.448Z,86.79
2022-10-17T12:16:58.402Z,87.19
2022-10-17T12:17:58.383Z,87.19
2022-10-17T12:18:58.363Z,87.09
2022-10-17T12:19:58.348Z,87.09
2022-10-17T12:20:58.334Z,86.49
2022-10-17T12:21:58.354Z,86.19
2022-10-17T12:22:58.306Z,86.55
2022-10-17T12:23:58.361Z,86.55
2022-10-17T12:24:58.277Z,86.65
2022-10-17T12:26:01.633Z,85.85
2022-10-17T12:26:59.289Z,86.05
2022-10-17T12:27:58.271Z,86.05
2022-10-17T12:28:58.288Z,86.45
2022-10-17T12:29:58.247Z,85.45
2022-10-17T12:30:58.218Z,84.95
2022-10-17T12:31:58.210Z,84.85
2022-10-17T12:33:06.196Z,85.65
2022-10-17T12:33:59.199Z,86.05
2022-10-17T12:34:58.169Z,86.61
2022-10-17T12:35:58.197Z,85.11
2022-10-17T12:36:58.180Z,84.91
2022-10-17T12:37:59.321Z,85.31
2022-10-17T12:38:58.219Z,85.31
2022-10-17T12:39:58.124Z,85.51
2022-10-17T12:40:58.117Z,85.85
2022-10-17T12:41:58.239Z,86.65
2022-10-17T12:42:58.094Z,86.15
2022-10-17T12:43:58.175Z,86.05
2022-10-17T12:44:58.062Z,85.95
2022-10-17T12:45:58.104Z,85.25
2022-10-17T12:46:58.157Z,85.55
2022-10-17T12:47:58.042Z,86.55
2022-10-17T12:48:58.031Z,86.01
2022-10-17T12:49:58.062Z,85.91
2022-10-17T12:51:12.157Z,86.41
2022-10-17T12:51:58.984Z,86.01
2022-10-17T12:52:58.042Z,86.05
2022-10-17T12:53:57.954Z,86.35
2022-10-17T12:55:59.010Z,86.61
2022-10-17T12:56:57.915Z,86.21
2022-10-17T12:57:57.954Z,85.61